Time;durP1;ratioP1;P1;durP2;ratioP2;P2;SDS_P1;SDS_P2;PMS_P1;PMS_P2;Temp;Humidity;BMP_temperature;BMP_pressure;BME280_temperature;BME280_humidity;BME280_pressure;Samples;Min_cycle;Max_cycle;Signal;HPM_P1;HPM_P2
2023/11/07 00:01:34;;;;;;;12.33;3.87;;;8.60;99.90;;;;;;5084287;28;20282;-63
2023/11/07 00:04:03;;;;;;;12.57;3.07;;;8.70;99.90;;;;;;5079247;28;20228;-63
2023/11/07 00:06:31;;;;;;;11.83;4.30;;;8.70;99.90;;;;;;5081941;28;20220;-62
2023/11/07 00:09:00;;;;;;;7.37;3.40;;;8.60;99.90;;;;;;5079825;28;20215;-63
2023/11/07 00:11:28;;;;;;;7.00;3.60;;;8.60;99.90;;;;;;5081119;28;20224;-63
2023/11/07 00:13:56;;;;;;;8.87;3.37;;;8.60;99.90;;;;;;5080866;28;20273;-63
2023/11/07 00:16:27;;;;;;;7.80;3.20;;;8.60;99.90;;;;;;5075574;28;20192;-63
2023/11/07 00:18:56;;;;;;;6.27;3.27;;;8.70;99.90;;;;;;5078305;28;20220;-63
2023/11/07 00:21:24;;;;;;;8.00;3.57;;;8.70;99.90;;;;;;5081855;28;20223;-63
2023/11/07 00:23:53;;;;;;;8.03;3.17;;;8.70;99.90;;;;;;5080983;28;20215;-62
2023/11/07 00:26:21;;;;;;;6.03;3.50;;;8.70;99.90;;;;;;5079485;28;20831;-62
2023/11/07 00:28:50;;;;;;;8.60;3.27;;;8.70;99.90;;;;;;5076603;28;20196;-62
2023/11/07 00:31:19;;;;;;;7.23;3.63;;;8.70;99.90;;;;;;5086685;28;20200;-63
2023/11/07 00:33:48;;;;;;;3.60;3.30;;;8.60;99.90;;;;;;5079190;28;20220;-63
2023/11/07 00:36:17;;;;;;;8.70;3.67;;;8.60;99.90;;;;;;5087086;28;20215;-63
2023/11/07 00:38:45;;;;;;;7.47;3.50;;;8.60;99.90;;;;;;5083406;28;20790;-63
2023/11/07 00:41:14;;;;;;;6.83;3.07;;;8.50;99.90;;;;;;5087743;28;20235;-63
2023/11/07 00:43:43;;;;;;;4.90;3.10;;;8.60;99.90;;;;;;5080376;28;20184;-62
2023/11/07 00:46:11;;;;;;;10.17;3.17;;;8.50;99.90;;;;;;5085489;28;20211;-63
2023/11/07 00:48:39;;;;;;;5.63;3.23;;;8.60;99.90;;;;;;5085055;28;20214;-63
2023/11/07 00:51:11;;;;;;;6.97;3.50;;;8.70;99.90;;;;;;5082282;28;20541;-63
2023/11/07 00:53:39;;;;;;;9.67;3.60;;;8.70;99.90;;;;;;5085062;28;20239;-63
2023/11/07 00:56:09;;;;;;;7.30;3.33;;;8.70;99.90;;;;;;5083381;28;20228;-63
2023/11/07 00:58:37;;;;;;;9.63;3.77;;;8.70;99.90;;;;;;5082499;28;20211;-62
2023/11/07 01:01:06;;;;;;;8.63;3.40;;;8.70;99.90;;;;;;5082083;28;20195;-63
2023/11/07 01:03:34;;;;;;;7.70;3.40;;;8.70;99.90;;;;;;5085339;28;20275;-63
2023/11/07 01:06:04;;;;;;;6.73;3.77;;;8.70;99.90;;;;;;5082746;28;20551;-63
2023/11/07 01:08:34;;;;;;;8.37;3.43;;;8.60;99.90;;;;;;5080272;28;20232;-63
2023/11/07 01:11:03;;;;;;;10.23;3.70;;;8.60;99.90;;;;;;5084150;28;20225;-63
2023/11/07 01:13:31;;;;;;;9.40;3.70;;;8.60;99.90;;;;;;5080764;28;20286;-63
2023/11/07 01:15:59;;;;;;;4.50;3.23;;;8.60;99.90;;;;;;5081846;28;20211;-63
2023/11/07 01:18:27;;;;;;;7.20;3.57;;;8.60;99.90;;;;;;5084023;28;20585;-63
2023/11/07 01:20:57;;;;;;;9.37;3.73;;;8.60;99.90;;;;;;5085438;28;20337;-63
2023/11/07 01:23:25;;;;;;;9.93;3.60;;;8.60;99.90;;;;;;5082415;28;20237;-63
2023/11/07 01:25:54;;;;;;;14.13;3.80;;;8.50;99.90;;;;;;5080970;28;20538;-63
2023/11/07 01:28:23;;;;;;;10.30;3.70;;;8.50;99.90;;;;;;5084760;28;20187;-63
2023/11/07 01:30:51;;;;;;;11.63;3.83;;;8.50;99.90;;;;;;5083631;28;20690;-63
2023/11/07 01:33:19;;;;;;;7.60;3.80;;;8.50;99.90;;;;;;5080755;28;20754;-63
2023/11/07 01:35:48;;;;;;;14.87;3.73;;;8.40;99.90;;;;;;5083607;28;20255;-63
2023/11/07 01:38:16;;;;;;;7.47;3.90;;;8.40;99.90;;;;;;5081393;28;21142;-63
2023/11/07 01:40:44;;;;;;;4.70;3.60;;;8.30;99.90;;;;;;5082113;28;20213;-62
2023/11/07 01:43:15;;;;;;;10.03;3.83;;;8.30;99.90;;;;;;5085704;28;20530;-63
2023/11/07 01:45:44;;;;;;;5.33;3.57;;;8.30;99.90;;;;;;5081624;28;20281;-63
2023/11/07 01:48:23;;;;;;;11.70;4.03;;;8.30;99.90;;;;;;5083404;28;20237;-63
2023/11/07 01:50:51;;;;;;;8.43;3.83;;;8.30;99.90;;;;;;5081001;28;20223;-63
2023/11/07 01:53:20;;;;;;;7.20;3.90;;;8.30;99.90;;;;;;5083645;28;20318;-63
2023/11/07 01:55:49;;;;;;;7.27;4.07;;;8.30;99.90;;;;;;5081530;28;20665;-62
2023/11/07 01:58:21;;;;;;;8.03;4.27;;;8.30;99.90;;;;;;5082405;28;20222;-63
2023/11/07 02:00:53;;;;;;;12.10;4.17;;;8.30;99.90;;;;;;5083899;28;20326;-63
2023/11/07 02:03:22;;;;;;;11.77;4.37;;;8.30;99.90;;;;;;5087729;28;20297;-62
2023/11/07 02:05:51;;;;;;;8.07;4.73;;;8.30;99.90;;;;;;5085450;28;20288;-63
2023/11/07 02:08:22;;;;;;;10.37;4.40;;;8.30;99.90;;;;;;5083511;28;20227;-63
2023/11/07 02:10:51;;;;;;;5.93;4.20;;;8.30;99.90;;;;;;5081784;28;20691;-62
2023/11/07 02:13:21;;;;;;;4.80;4.30;;;8.30;99.90;;;;;;5082845;28;20200;-63
2023/11/07 02:15:49;;;;;;;11.57;5.40;;;8.30;99.90;;;;;;5085355;28;20227;-63
2023/11/07 02:18:18;;;;;;;7.97;4.80;;;8.30;99.90;;;;;;5081827;28;20229;-63
2023/11/07 02:20:46;;;;;;;7.43;5.00;;;8.30;99.90;;;;;;5083712;28;20308;-62
2023/11/07 02:23:29;;;;;;;12.20;5.50;;;8.30;99.90;;;;;;5080285;28;20219;-63
2023/11/07 02:25:57;;;;;;;12.47;5.70;;;8.20;99.90;;;;;;5081917;28;20229;-63
2023/11/07 02:28:25;;;;;;;13.70;6.03;;;8.30;99.90;;;;;;5080950;28;20208;-64
2023/11/07 02:30:54;;;;;;;11.17;5.80;;;8.30;99.90;;;;;;5082396;28;20219;-63
2023/11/07 02:33:22;;;;;;;13.83;6.30;;;8.30;99.90;;;;;;5083614;28;20216;-63
2023/11/07 02:35:50;;;;;;;9.77;5.57;;;8.30;99.90;;;;;;5083703;28;20523;-63
2023/11/07 02:38:20;;;;;;;10.47;6.20;;;8.30;99.90;;;;;;5080058;28;20207;-62
2023/11/07 02:40:50;;;;;;;12.80;6.33;;;8.30;99.90;;;;;;5084963;28;20287;-62
2023/11/07 02:43:19;;;;;;;15.10;6.57;;;8.30;99.90;;;;;;5080550;28;20532;-62
2023/11/07 02:45:48;;;;;;;12.50;6.43;;;8.30;99.90;;;;;;5081535;28;20216;-62
2023/11/07 02:48:17;;;;;;;11.10;6.43;;;8.30;99.90;;;;;;5076578;28;20720;-62
2023/11/07 02:50:45;;;;;;;15.87;7.30;;;8.30;99.90;;;;;;5081208;28;20301;-62
2023/11/07 02:53:14;;;;;;;12.07;7.03;;;8.30;99.90;;;;;;5086271;28;21128;-62
2023/11/07 02:55:42;;;;;;;14.77;7.50;;;8.30;99.90;;;;;;5083539;28;20191;-62
2023/11/07 02:58:13;;;;;;;16.57;8.20;;;8.30;99.90;;;;;;5081042;28;20216;-62
2023/11/07 03:00:41;;;;;;;15.13;8.50;;;8.30;99.90;;;;;;5081059;28;20700;-63
2023/11/07 03:03:09;;;;;;;15.63;9.30;;;8.20;99.90;;;;;;5084792;28;20218;-59
2023/11/07 03:05:38;;;;;;;14.93;8.87;;;8.20;99.90;;;;;;5081475;28;20212;-63
2023/11/07 03:08:07;;;;;;;17.10;9.37;;;8.20;99.90;;;;;;5080290;28;20615;-63
2023/11/07 03:10:36;;;;;;;14.10;9.20;;;8.20;99.90;;;;;;5081180;28;20200;-56
2023/11/07 03:13:04;;;;;;;13.67;9.13;;;8.20;99.90;;;;;;5080973;28;20215;-63
2023/11/07 03:15:34;;;;;;;16.63;9.10;;;8.20;99.90;;;;;;5078254;28;20665;-63
2023/11/07 03:18:02;;;;;;;18.80;9.30;;;8.10;99.90;;;;;;5075420;28;20223;-63
2023/11/07 03:20:32;;;;;;;15.47;9.33;;;8.10;99.90;;;;;;5077480;28;20582;-63
2023/11/07 03:23:00;;;;;;;16.40;9.23;;;8.10;99.90;;;;;;5079574;28;20711;-62
2023/11/07 03:25:29;;;;;;;15.23;9.53;;;8.10;99.90;;;;;;5079283;28;20187;-63
2023/11/07 03:27:57;;;;;;;12.83;9.07;;;8.10;99.90;;;;;;5078736;28;20215;-63
2023/11/07 03:30:26;;;;;;;18.87;10.03;;;8.10;99.90;;;;;;5083433;28;20219;-63
2023/11/07 03:32:56;;;;;;;16.30;8.67;;;8.00;99.90;;;;;;5079688;28;20219;-63
2023/11/07 03:35:27;;;;;;;19.77;9.40;;;8.00;99.90;;;;;;5077581;28;20281;-63
2023/11/07 03:37:55;;;;;;;18.57;9.40;;;8.00;99.90;;;;;;5078586;28;20209;-62
2023/11/07 03:40:23;;;;;;;21.50;9.63;;;8.00;99.90;;;;;;5081033;28;20558;-63
2023/11/07 03:42:51;;;;;;;17.83;9.73;;;8.00;99.90;;;;;;5078403;28;20235;-63
2023/11/07 03:45:19;;;;;;;16.67;9.57;;;7.90;99.90;;;;;;5080035;28;20211;-63
2023/11/07 03:47:48;;;;;;;18.00;10.70;;;7.90;99.90;;;;;;5082178;28;20232;-63
2023/11/07 03:50:18;;;;;;;20.60;10.67;;;7.90;99.90;;;;;;5085325;28;20219;-63
2023/11/07 03:52:46;;;;;;;22.43;11.50;;;7.80;99.90;;;;;;5076908;28;20205;-62
2023/11/07 03:55:15;;;;;;;20.97;10.63;;;7.80;99.90;;;;;;5078190;28;20198;-63
2023/11/07 03:57:43;;;;;;;14.67;10.03;;;7.80;99.90;;;;;;5075087;28;20215;-63
2023/11/07 04:00:12;;;;;;;17.67;9.60;;;7.80;99.90;;;;;;5080334;28;20609;-63
2023/11/07 04:02:40;;;;;;;17.33;9.67;;;7.80;99.90;;;;;;5080438;28;20215;-63
2023/11/07 04:05:10;;;;;;;19.70;10.20;;;7.80;99.90;;;;;;5081469;28;20306;-62
2023/11/07 04:07:40;;;;;;;20.47;10.20;;;7.70;99.90;;;;;;5063805;28;20527;-62
2023/11/07 04:10:09;;;;;;;20.63;10.07;;;7.70;99.90;;;;;;5081826;28;20200;-63
2023/11/07 04:12:37;;;;;;;18.50;9.93;;;7.70;99.90;;;;;;5080768;28;20293;-63
2023/11/07 04:15:09;;;;;;;18.27;10.03;;;7.70;99.90;;;;;;5080757;28;20590;-63
2023/11/07 04:17:38;;;;;;;16.37;10.00;;;7.80;99.90;;;;;;5081403;28;20226;-63
2023/11/07 04:20:09;;;;;;;19.73;10.23;;;7.80;99.90;;;;;;5079013;28;20318;-63
2023/11/07 04:22:37;;;;;;;22.33;9.77;;;7.80;99.90;;;;;;5080710;28;20188;-62
2023/11/07 04:25:08;;;;;;;17.73;9.57;;;7.80;99.90;;;;;;5076265;28;20188;-63
2023/11/07 04:27:36;;;;;;;19.30;9.00;;;7.80;99.90;;;;;;5078704;28;20262;-64
2023/11/07 04:30:06;;;;;;;17.90;8.83;;;7.80;99.90;;;;;;5077627;28;20310;-63
2023/11/07 04:32:35;;;;;;;13.37;9.30;;;7.80;99.90;;;;;;5081515;28;20284;-63
2023/11/07 04:35:06;;;;;;;24.23;9.27;;;7.80;99.90;;;;;;5081785;28;20250;-63
2023/11/07 04:37:34;;;;;;;21.10;8.57;;;7.80;99.90;;;;;;5080351;28;20253;-63
2023/11/07 04:40:04;;;;;;;13.13;7.10;;;7.90;99.90;;;;;;5080003;28;20299;-63
2023/11/07 04:42:34;;;;;;;11.97;7.23;;;7.90;99.90;;;;;;5074955;28;20223;-63
2023/11/07 04:45:03;;;;;;;13.97;6.80;;;8.00;99.90;;;;;;5076883;28;20220;-63
2023/11/07 04:47:31;;;;;;;14.47;6.73;;;8.00;99.90;;;;;;5074052;28;20219;-63
2023/11/07 04:50:00;;;;;;;13.33;7.40;;;8.00;99.90;;;;;;5077285;28;20311;-63
2023/11/07 04:52:29;;;;;;;17.10;7.13;;;8.00;99.90;;;;;;5082274;28;20192;-63
2023/11/07 04:54:57;;;;;;;15.53;7.50;;;8.00;99.90;;;;;;5083439;28;20296;-63
2023/11/07 04:57:25;;;;;;;12.10;8.27;;;8.10;99.90;;;;;;5078185;28;20215;-63
2023/11/07 04:59:55;;;;;;;15.67;7.53;;;8.00;99.90;;;;;;5075043;28;20212;-63
2023/11/07 05:02:23;;;;;;;17.87;7.80;;;8.10;99.90;;;;;;5072475;28;20218;-63
2023/11/07 05:04:52;;;;;;;15.73;8.07;;;8.10;99.90;;;;;;5075900;28;20223;-62
2023/11/07 05:07:23;;;;;;;13.33;7.60;;;8.10;99.90;;;;;;5074395;28;20356;-63
2023/11/07 05:09:55;;;;;;;13.90;8.03;;;8.10;99.90;;;;;;5076278;28;20230;-63
2023/11/07 05:12:23;;;;;;;12.60;7.63;;;8.10;99.90;;;;;;5077005;28;20215;-63
2023/11/07 05:14:51;;;;;;;15.43;7.60;;;8.00;99.90;;;;;;5077932;28;20233;-63
2023/11/07 05:17:21;;;;;;;17.60;8.47;;;8.00;99.90;;;;;;5083560;28;20654;-63
2023/11/07 05:19:50;;;;;;;15.27;8.33;;;8.00;99.90;;;;;;5081504;28;20210;-62
2023/11/07 05:22:18;;;;;;;17.80;8.70;;;7.90;99.90;;;;;;5064061;28;20214;-62
2023/11/07 05:24:46;;;;;;;14.57;7.93;;;7.90;99.90;;;;;;5082111;28;20281;-63
2023/11/07 05:27:14;;;;;;;12.83;8.50;;;8.00;99.90;;;;;;5084452;28;20305;-63
2023/11/07 05:29:42;;;;;;;13.93;8.13;;;8.00;99.90;;;;;;5085028;28;20247;-62
2023/11/07 05:32:11;;;;;;;15.87;8.27;;;8.00;99.90;;;;;;5081451;28;20227;-62
2023/11/07 05:34:40;;;;;;;11.17;8.80;;;8.00;99.90;;;;;;5079735;28;20202;-62
2023/11/07 05:37:09;;;;;;;15.87;9.23;;;8.00;99.90;;;;;;5084647;28;20600;-63
2023/11/07 05:39:37;;;;;;;16.67;9.53;;;8.00;99.90;;;;;;5081851;28;21941;-63
2023/11/07 05:42:07;;;;;;;14.60;9.03;;;8.00;99.90;;;;;;5081896;28;20668;-63
2023/11/07 05:44:35;;;;;;;21.13;9.40;;;7.90;99.90;;;;;;5086038;28;20214;-63
2023/11/07 05:47:05;;;;;;;19.00;9.07;;;7.90;99.90;;;;;;5082143;28;20697;-62
2023/11/07 05:49:33;;;;;;;22.93;9.13;;;8.00;99.90;;;;;;5080565;28;20235;-63
2023/11/07 05:52:03;;;;;;;16.20;8.07;;;8.00;99.90;;;;;;5067563;28;20223;-63
2023/11/07 05:54:31;;;;;;;27.70;7.97;;;8.00;99.90;;;;;;5080042;28;20242;-62
2023/11/07 05:57:00;;;;;;;16.10;7.10;;;8.00;99.90;;;;;;5081785;28;20219;-63
2023/11/07 05:59:28;;;;;;;12.30;6.70;;;8.00;99.90;;;;;;5082672;28;20711;-63
2023/11/07 06:01:56;;;;;;;15.43;6.40;;;8.00;99.90;;;;;;5081969;28;20646;-63
2023/11/07 06:04:31;;;;;;;12.80;6.37;;;8.00;99.90;;;;;;5084299;28;20250;-62
2023/11/07 06:07:00;;;;;;;19.07;7.43;;;8.00;99.90;;;;;;5083102;28;20223;-63
2023/11/07 06:09:30;;;;;;;9.07;5.80;;;8.00;99.90;;;;;;5081725;28;20256;-63
2023/11/07 06:11:58;;;;;;;11.13;6.30;;;8.00;99.90;;;;;;5080857;28;20243;-63
2023/11/07 06:14:26;;;;;;;11.17;5.90;;;8.00;99.90;;;;;;5077008;28;20272;-63
2023/11/07 06:16:54;;;;;;;12.37;5.47;;;8.00;99.90;;;;;;5083319;28;20199;-63
2023/11/07 06:19:23;;;;;;;12.13;4.83;;;7.90;99.90;;;;;;5078894;28;20192;-63
2023/11/07 06:21:51;;;;;;;7.47;4.47;;;7.90;99.90;;;;;;5083159;28;20222;-63
2023/11/07 06:24:20;;;;;;;8.70;4.97;;;7.90;99.90;;;;;;5079565;28;20215;-63
2023/11/07 06:26:49;;;;;;;10.97;4.70;;;7.80;99.90;;;;;;5081010;28;20235;-63
2023/11/07 06:29:20;;;;;;;6.77;4.33;;;7.80;99.90;;;;;;5075012;28;20268;-63
2023/11/07 06:31:49;;;;;;;15.43;5.07;;;7.80;99.90;;;;;;5081409;28;20203;-62
2023/11/07 06:34:18;;;;;;;10.90;4.40;;;7.80;99.90;;;;;;5084547;28;20184;-63
2023/11/07 06:36:47;;;;;;;10.30;4.53;;;7.70;99.90;;;;;;5085212;28;20228;-63
2023/11/07 06:39:18;;;;;;;7.13;4.20;;;7.70;99.90;;;;;;5085246;28;20219;-63
2023/11/07 06:41:46;;;;;;;7.37;4.30;;;7.70;99.90;;;;;;5081934;28;20219;-63
2023/11/07 06:44:16;;;;;;;9.93;4.57;;;7.60;99.90;;;;;;5081357;28;20700;-63
2023/11/07 06:46:45;;;;;;;10.47;4.70;;;7.60;99.90;;;;;;5082858;28;20217;-62
2023/11/07 06:49:14;;;;;;;13.43;4.60;;;7.60;99.90;;;;;;5084787;28;20250;-63
2023/11/07 06:51:42;;;;;;;5.50;3.90;;;7.60;99.90;;;;;;5086153;28;20226;-63
2023/11/07 06:54:11;;;;;;;6.30;3.90;;;7.60;99.90;;;;;;5078677;28;20232;-63
2023/11/07 06:56:39;;;;;;;6.13;3.93;;;7.60;99.90;;;;;;5081240;28;20219;-62
2023/11/07 06:59:07;;;;;;;7.17;3.83;;;7.60;99.90;;;;;;5081460;28;20765;-63
2023/11/07 07:01:37;;;;;;;8.00;3.63;;;7.50;99.90;;;;;;5079136;28;20542;-51
2023/11/07 07:04:06;;;;;;;7.87;3.80;;;7.50;99.90;;;;;;5079506;28;20223;-63
2023/11/07 07:06:35;;;;;;;7.40;3.70;;;7.50;99.90;;;;;;5081368;28;20223;-63
2023/11/07 07:09:05;;;;;;;8.83;3.10;;;7.50;99.90;;;;;;5080866;28;20309;-63
2023/11/07 07:11:33;;;;;;;8.83;3.80;;;7.50;99.90;;;;;;5085507;28;20220;-63
2023/11/07 07:14:03;;;;;;;5.23;3.13;;;7.60;99.90;;;;;;5078280;28;20231;-62
2023/11/07 07:16:32;;;;;;;5.33;3.50;;;7.60;99.90;;;;;;5076892;28;20196;-63
2023/11/07 07:19:06;;;;;;;7.30;3.30;;;7.70;99.90;;;;;;5079835;28;20223;-63
2023/11/07 07:21:35;;;;;;;5.90;3.37;;;7.70;99.90;;;;;;5080717;28;20222;-63
2023/11/07 07:24:15;;;;;;;4.80;3.07;;;7.80;99.90;;;;;;5080523;28;20223;-63
2023/11/07 07:26:45;;;;;;;2.80;2.60;;;7.80;99.90;;;;;;5073789;28;20230;-63
2023/11/07 07:29:13;;;;;;;3.60;3.30;;;7.80;99.90;;;;;;5082715;28;20314;-63
2023/11/07 07:31:42;;;;;;;4.97;3.00;;;7.90;99.90;;;;;;5083464;28;20207;-62
2023/11/07 07:34:12;;;;;;;4.23;3.00;;;8.00;99.90;;;;;;5083656;28;20765;-63
2023/11/07 07:36:47;;;;;;;4.63;3.07;;;8.00;99.90;;;;;;5085527;28;20234;-63
2023/11/07 07:39:27;;;;;;;3.40;3.10;;;8.10;99.90;;;;;;5080324;28;20256;-63
2023/11/07 07:41:58;;;;;;;4.63;2.80;;;8.10;99.90;;;;;;5084768;28;20219;-63
2023/11/07 07:44:26;;;;;;;3.80;3.23;;;8.00;99.90;;;;;;5079736;28;20216;-63
2023/11/07 07:46:57;;;;;;;4.67;3.20;;;8.00;99.90;;;;;;5081441;28;20252;-62
2023/11/07 07:49:30;;;;;;;6.10;3.20;;;8.00;99.90;;;;;;5078908;28;20188;-63
2023/11/07 07:51:59;;;;;;;5.30;3.67;;;8.00;99.90;;;;;;5082148;28;20231;-64
2023/11/07 07:54:29;;;;;;;4.10;3.20;;;8.00;99.90;;;;;;5080133;28;20624;-63
2023/11/07 07:57:17;;;;;;;3.70;3.23;;;7.90;99.90;;;;;;5079671;28;20222;-64
2023/11/07 07:59:46;;;;;;;8.40;3.30;;;7.90;99.90;;;;;;5083774;28;20758;-63
2023/11/07 08:02:15;;;;;;;3.53;3.23;;;7.90;99.90;;;;;;5080316;28;20574;-63
2023/11/07 08:04:46;;;;;;;6.37;3.40;;;7.90;99.90;;;;;;5078172;28;20689;-63
2023/11/07 08:07:16;;;;;;;6.23;3.10;;;7.90;99.90;;;;;;5082260;28;20187;-63
2023/11/07 08:09:45;;;;;;;5.63;3.60;;;7.90;99.90;;;;;;5079217;28;20227;-63
2023/11/07 08:12:13;;;;;;;5.83;4.00;;;8.00;99.90;;;;;;5079192;28;20647;-63
2023/11/07 08:14:44;;;;;;;3.53;3.23;;;8.00;99.90;;;;;;5079585;28;20223;-63
2023/11/07 08:17:12;;;;;;;3.77;3.10;;;8.00;99.90;;;;;;5078707;28;20230;-63
2023/11/07 08:19:41;;;;;;;7.30;3.57;;;8.10;99.90;;;;;;5078635;28;20642;-62
2023/11/07 08:22:10;;;;;;;5.13;3.60;;;8.10;99.90;;;;;;5082089;28;20226;-63
2023/11/07 08:24:39;;;;;;;4.57;3.23;;;8.20;99.90;;;;;;5084374;28;20317;-63
2023/11/07 08:27:07;;;;;;;6.53;3.53;;;8.30;99.90;;;;;;5079408;28;20224;-63
2023/11/07 08:29:35;;;;;;;4.27;3.63;;;8.40;99.90;;;;;;5079418;28;20649;-63
2023/11/07 08:32:07;;;;;;;7.83;4.10;;;8.60;99.90;;;;;;5081048;28;20547;-62
2023/11/07 08:34:36;;;;;;;8.50;4.63;;;8.70;99.90;;;;;;5078955;28;20249;-63
2023/11/07 08:37:05;;;;;;;5.43;4.53;;;8.80;99.90;;;;;;5081978;28;20215;-63
2023/11/07 08:39:41;;;;;;;8.73;5.70;;;8.90;99.90;;;;;;5073675;28;20288;-63
2023/11/07 08:42:10;;;;;;;7.50;5.30;;;8.90;99.90;;;;;;5080283;28;20221;-63
2023/11/07 08:44:39;;;;;;;6.90;5.27;;;9.00;99.90;;;;;;5081309;28;20310;-63
2023/11/07 08:47:07;;;;;;;5.73;4.87;;;9.00;99.90;;;;;;5082082;28;20230;-62
2023/11/07 08:49:37;;;;;;;7.73;5.30;;;9.00;99.90;;;;;;5077072;28;20202;-63
2023/11/07 08:52:06;;;;;;;7.73;5.27;;;9.10;99.90;;;;;;5083913;28;20215;-63
2023/11/07 08:54:36;;;;;;;7.10;5.20;;;9.10;99.90;;;;;;5084270;28;20765;-63
2023/11/07 08:57:06;;;;;;;7.20;4.97;;;9.20;99.90;;;;;;5083587;28;20222;-63
2023/11/07 08:59:36;;;;;;;5.73;5.13;;;9.30;99.90;;;;;;5080075;28;20238;-62
2023/11/07 09:02:05;;;;;;;11.47;5.47;;;9.30;99.90;;;;;;5085513;28;20269;-62
2023/11/07 09:04:34;;;;;;;8.27;4.87;;;9.40;99.90;;;;;;5081907;28;20655;-62
2023/11/07 09:07:03;;;;;;;8.87;5.50;;;9.40;99.90;;;;;;5085231;28;20219;-63
2023/11/07 09:09:31;;;;;;;8.57;4.37;;;9.50;99.90;;;;;;5083377;28;20216;-63
2023/11/07 09:11:59;;;;;;;5.23;4.17;;;9.60;99.90;;;;;;5082462;28;20242;-63
2023/11/07 09:14:29;;;;;;;8.43;4.80;;;9.70;99.90;;;;;;5084525;28;20298;-63
2023/11/07 09:16:58;;;;;;;6.43;4.50;;;9.80;99.90;;;;;;5083394;28;20219;-62
2023/11/07 09:19:26;;;;;;;6.70;3.83;;;9.90;99.90;;;;;;5083325;28;20191;-63
2023/11/07 09:21:54;;;;;;;6.10;3.67;;;10.00;99.90;;;;;;5083291;28;20226;-63
2023/11/07 09:24:23;;;;;;;3.53;3.33;;;10.10;99.90;;;;;;5086277;28;20222;-63
2023/11/07 09:26:51;;;;;;;6.93;3.77;;;10.30;99.90;;;;;;5083384;28;20582;-63
2023/11/07 09:29:20;;;;;;;5.47;3.67;;;10.40;99.90;;;;;;5084800;28;20238;-63
2023/11/07 09:31:52;;;;;;;8.57;3.53;;;10.40;99.90;;;;;;5082127;28;20806;-62
2023/11/07 09:34:20;;;;;;;6.87;3.23;;;10.50;99.90;;;;;;5081920;28;20605;-63
2023/11/07 09:36:49;;;;;;;6.37;3.33;;;10.50;99.90;;;;;;5085474;28;20296;-63
2023/11/07 09:39:18;;;;;;;6.60;3.27;;;10.60;99.90;;;;;;5085046;28;20222;-63
2023/11/07 09:41:46;;;;;;;3.70;3.07;;;10.70;99.90;;;;;;5083686;28;20222;-63
2023/11/07 09:44:16;;;;;;;3.53;2.47;;;10.70;99.90;;;;;;5080742;28;20224;-62
2023/11/07 09:46:46;;;;;;;2.30;2.20;;;10.80;99.90;;;;;;5083665;28;20215;-62
2023/11/07 09:49:15;;;;;;;6.13;2.57;;;10.80;99.90;;;;;;5080382;28;20307;-63
2023/11/07 09:51:46;;;;;;;2.73;2.33;;;10.80;99.90;;;;;;5079218;28;20235;-63
2023/11/07 09:54:20;;;;;;;3.73;2.40;;;10.70;99.90;;;;;;5081633;28;20289;-64
2023/11/07 09:56:52;;;;;;;5.83;2.87;;;10.70;99.90;;;;;;5084350;28;20225;-63
2023/11/07 09:59:29;;;;;;;4.20;2.43;;;10.80;99.90;;;;;;5079710;28;20336;-63
2023/11/07 10:01:57;;;;;;;3.37;2.30;;;10.90;99.90;;;;;;5081682;28;20227;-63
2023/11/07 10:04:28;;;;;;;5.37;2.70;;;10.90;99.90;;;;;;5077218;28;20235;-63
2023/11/07 10:06:58;;;;;;;9.00;2.50;;;10.90;99.90;;;;;;5084194;28;20731;-65
2023/11/07 10:09:28;;;;;;;3.47;2.33;;;11.10;99.90;;;;;;5078555;28;20215;-63
2023/11/07 10:11:58;;;;;;;5.30;2.43;;;11.20;99.90;;;;;;5083108;28;20231;-63
2023/11/07 10:14:26;;;;;;;3.73;2.37;;;11.30;95.90;;;;;;5083692;28;20212;-63
2023/11/07 10:16:57;;;;;;;5.73;2.97;;;11.40;95.50;;;;;;5082528;28;20206;-63
2023/11/07 10:19:28;;;;;;;3.70;2.17;;;11.50;92.90;;;;;;5085527;28;20229;-63
2023/11/07 10:21:56;;;;;;;2.27;2.10;;;11.50;95.20;;;;;;5075962;28;20216;-63
2023/11/07 10:24:24;;;;;;;2.73;2.50;;;11.50;83.30;;;;;;5084383;28;20221;-63
2023/11/07 10:26:58;;;;;;;3.00;2.30;;;11.50;94.30;;;;;;5076789;28;20216;-63
2023/11/07 10:29:30;;;;;;;3.90;2.30;;;11.50;93.60;;;;;;5081604;28;20211;-63
2023/11/07 10:32:08;;;;;;;2.47;2.10;;;11.60;90.70;;;;;;5084436;28;20219;-62
2023/11/07 10:34:39;;;;;;;3.93;1.83;;;11.70;91.70;;;;;;5077799;28;20257;-62
2023/11/07 10:37:07;;;;;;;2.30;2.10;;;11.90;80.70;;;;;;5085458;28;20521;-63
2023/11/07 10:39:36;;;;;;;2.70;2.20;;;12.20;91.60;;;;;;5078108;28;20223;-63
2023/11/07 10:42:17;;;;;;;2.73;2.30;;;12.30;64.60;;;;;;5082676;28;20212;-63
2023/11/07 10:44:48;;;;;;;5.37;1.90;;;12.50;48.50;;;;;;5082224;28;20234;-63
2023/11/07 10:47:19;;;;;;;1.90;1.80;;;12.60;55.90;;;;;;5077716;28;20238;-63
2023/11/07 10:49:52;;;;;;;2.30;1.90;;;12.70;43.80;;;;;;5083920;28;20194;-63
2023/11/07 10:52:20;;;;;;;2.03;1.60;;;13.00;46.70;;;;;;5082105;28;20203;-63
2023/11/07 10:54:49;;;;;;;1.60;1.50;;;13.20;30.10;;;;;;5078254;28;20531;-63
2023/11/07 10:57:22;;;;;;;2.33;1.67;;;13.10;23.40;;;;;;5079948;28;20234;-63
2023/11/07 10:59:51;;;;;;;3.80;2.10;;;13.30;23.00;;;;;;5083875;28;20220;-64
2023/11/07 11:02:22;;;;;;;4.27;1.80;;;13.50;30.00;;;;;;5079532;28;20219;-63
2023/11/07 11:04:52;;;;;;;4.97;2.10;;;13.50;12.00;;;;;;5081262;28;20322;-63
2023/11/07 11:07:21;;;;;;;2.73;1.50;;;13.50;16.70;;;;;;5081630;28;20195;-63
2023/11/07 11:09:50;;;;;;;1.40;1.40;;;13.40;1.00;;;;;;5080442;28;20276;-63
2023/11/07 11:12:21;;;;;;;2.80;1.30;;;13.30;7.80;;;;;;5078868;28;20219;-64
2023/11/07 11:14:52;;;;;;;3.47;1.50;;;13.30;1.40;;;;;;5074866;28;20219;-63
2023/11/07 11:17:28;;;;;;;1.50;1.40;;;13.10;14.30;;;;;;5078182;28;20349;-64
2023/11/07 11:20:05;;;;;;;1.50;1.40;;;13.20;8.10;;;;;;5083174;28;20219;-63
2023/11/07 11:22:39;;;;;;;1.20;1.17;;;13.10;3.90;;;;;;5081478;28;20659;-63
2023/11/07 11:25:20;;;;;;;1.27;1.20;;;12.90;1.00;;;;;;5084560;28;20343;-63
2023/11/07 11:27:55;;;;;;;1.23;1.23;;;12.80;9.60;;;;;;5078711;28;20220;-63
2023/11/07 11:30:28;;;;;;;2.53;1.23;;;12.80;11.00;;;;;;5082056;28;20225;-63
2023/11/07 11:33:07;;;;;;;1.40;1.40;;;12.80;11.00;;;;;;5082098;28;20220;-63
2023/11/07 11:35:39;;;;;;;2.20;1.30;;;12.60;12.50;;;;;;5079367;28;20212;-63
2023/11/07 11:38:12;;;;;;;1.00;1.00;;;12.70;27.20;;;;;;5083660;28;20933;-63
2023/11/07 11:40:50;;;;;;;1.37;1.10;;;12.90;21.50;;;;;;5083730;28;20196;-62
2023/11/07 11:43:20;;;;;;;1.77;1.07;;;13.00;7.90;;;;;;5081336;28;20192;-64
2023/11/07 11:45:50;;;;;;;1.20;1.10;;;13.10;1.00;;;;;;5081427;28;20310;-64
2023/11/07 11:48:19;;;;;;;1.43;1.37;;;13.00;1.00;;;;;;5080430;28;20585;-63
2023/11/07 11:51:28;;;;;;;1.00;1.00;;;12.80;1.00;;;;;;5082016;28;20223;-63
2023/11/07 11:53:56;;;;;;;1.00;1.00;;;12.80;1.00;;;;;;5078815;28;20224;-63
2023/11/07 11:56:24;;;;;;;1.00;0.90;;;13.00;1.00;;;;;;5085594;28;20302;-63
2023/11/07 11:59:03;;;;;;;0.87;0.80;;;13.20;7.90;;;;;;5075211;28;20199;-63
2023/11/07 12:01:48;;;;;;;0.80;0.80;;;13.30;1.00;;;;;;5080896;28;20525;-63
2023/11/07 12:04:29;;;;;;;1.67;1.10;;;13.20;1.00;;;;;;5081481;28;20234;-63
2023/11/07 12:07:22;;;;;;;1.00;1.00;;;13.00;1.00;;;;;;5080722;28;20223;-63
2023/11/07 12:09:52;;;;;;;1.73;1.10;;;12.90;4.90;;;;;;5080804;28;20268;-63
2023/11/07 12:12:21;;;;;;;0.90;0.90;;;12.70;10.30;;;;;;5079547;28;20300;-63
2023/11/07 12:14:54;;;;;;;0.90;0.90;;;12.70;15.30;;;;;;5080078;28;20211;-63
2023/11/07 12:17:24;;;;;;;0.80;0.80;;;12.70;10.10;;;;;;5077437;28;20227;-63
2023/11/07 12:20:03;;;;;;;1.00;1.00;;;12.70;16.10;;;;;;5083027;28;20190;-63
2023/11/07 12:22:33;;;;;;;1.50;1.00;;;12.80;15.30;;;;;;5076734;28;20202;-63
2023/11/07 12:25:06;;;;;;;1.17;1.00;;;12.80;12.80;;;;;;5082675;28;20240;-63
2023/11/07 12:27:35;;;;;;;1.17;1.17;;;12.90;18.40;;;;;;5087838;28;20256;-63
2023/11/07 12:30:14;;;;;;;1.27;1.10;;;13.00;19.80;;;;;;5091326;28;20579;-63
2023/11/07 12:32:43;;;;;;;1.10;1.10;;;13.00;1.00;;;;;;5079769;28;20219;-63
2023/11/07 12:35:23;;;;;;;1.50;1.07;;;13.10;7.70;;;;;;5088686;28;20219;-63
2023/11/07 12:37:53;;;;;;;0.97;0.97;;;13.20;1.70;;;;;;5088186;28;20537;-63
2023/11/07 12:40:23;;;;;;;1.10;1.10;;;13.30;1.00;;;;;;5086358;28;20192;-63
2023/11/07 12:42:54;;;;;;;1.20;1.20;;;13.10;1.00;;;;;;5086218;28;20216;-63
2023/11/07 12:45:25;;;;;;;1.17;1.10;;;13.00;5.00;;;;;;5084527;28;20215;-63
2023/11/07 12:47:58;;;;;;;1.67;1.00;;;13.00;12.40;;;;;;5085563;28;20224;-63
2023/11/07 12:50:32;;;;;;;2.20;0.90;;;13.00;5.40;;;;;;5084459;28;20216;-64
2023/11/07 12:53:04;;;;;;;2.10;0.90;;;13.00;4.60;;;;;;5088682;28;20230;-63
2023/11/07 12:55:35;;;;;;;0.90;0.90;;;13.00;5.40;;;;;;5085863;28;20195;-64
2023/11/07 12:58:05;;;;;;;1.10;1.00;;;13.00;1.00;;;;;;5080744;28;20243;-64
2023/11/07 13:00:54;;;;;;;1.20;1.20;;;12.90;1.00;;;;;;5087084;28;20227;-63
2023/11/07 13:03:23;;;;;;;1.00;1.00;;;12.80;1.00;;;;;;5084665;28;20228;-63
2023/11/07 13:05:59;;;;;;;3.70;1.20;;;12.70;4.40;;;;;;5089968;28;20226;-64